Time;durP1;ratioP1;P1;durP2;ratioP2;P2;SDS_P1;SDS_P2;PMS_P1;PMS_P2;Temp;Humidity;BMP_temperature;BMP_pressure;BME280_temperature;BME280_humidity;BME280_pressure;Samples;Min_cycle;Max_cycle;Signal;HPM_P1;HPM_P2
2021/01/21 00:01:53;;;;;;;3.40;2.33;;;6.80;92.30;;;5.91;100.00;98975.16;4966971;28;100161;-63
2021/01/21 00:04:20;;;;;;;6.17;3.03;;;6.80;91.70;;;5.92;100.00;98979.47;4966202;28;100615;-62
2021/01/21 00:06:47;;;;;;;4.80;3.03;;;7.00;91.80;;;6.04;100.00;98975.53;4966303;28;100483;-61
2021/01/21 00:09:16;;;;;;;3.30;2.57;;;7.00;91.20;;;5.99;100.00;98969.88;4966255;28;100154;-62
2021/01/21 00:11:42;;;;;;;3.63;2.57;;;6.90;91.10;;;5.98;100.00;98966.38;4965552;27;100223;-61
2021/01/21 00:14:09;;;;;;;4.70;2.90;;;7.20;90.80;;;5.96;100.00;98964.88;4965746;28;101953;-62
2021/01/21 00:16:35;;;;;;;4.70;2.90;;;7.20;90.80;;;5.99;100.00;98956.59;4966232;28;100313;-61
2021/01/21 00:19:02;;;;;;;4.20;3.10;;;8.20;90.80;;;6.01;100.00;98960.75;4965619;28;99886;-62
2021/01/21 00:21:28;;;;;;;4.67;2.90;;;7.10;90.30;;;6.05;100.00;98948.00;4966083;28;100166;-62
2021/01/21 00:23:58;;;;;;;4.90;2.97;;;7.20;89.90;;;5.96;100.00;98956.91;4965539;28;100733;-63
2021/01/21 00:26:24;;;;;;;6.77;3.20;;;8.90;90.80;;;5.91;100.00;98957.41;4965463;28;100877;-63
2021/01/21 00:28:51;;;;;;;6.20;3.47;;;7.10;90.40;;;5.93;100.00;98950.13;4965965;28;100076;-62
2021/01/21 00:31:17;;;;;;;4.47;3.30;;;7.10;90.40;;;5.90;100.00;98954.91;4966239;28;100209;-61
2021/01/21 00:33:43;;;;;;;4.87;3.37;;;7.10;90.30;;;5.86;100.00;98954.38;4966329;28;100808;-60
2021/01/21 00:36:10;;;;;;;4.43;3.20;;;7.10;90.50;;;5.77;100.00;98950.03;4965684;28;100289;-63
2021/01/21 00:38:37;;;;;;;5.30;3.10;;;7.10;90.60;;;5.83;100.00;98948.53;4966157;28;99973;-63
2021/01/21 00:41:04;;;;;;;5.50;3.53;;;7.00;90.50;;;5.83;100.00;98951.19;4966423;28;100130;-63
2021/01/21 00:43:30;;;;;;;4.87;3.37;;;7.00;90.50;;;5.77;100.00;98953.50;4965896;28;101897;-61
2021/01/21 00:45:57;;;;;;;4.73;3.13;;;7.00;90.60;;;5.74;100.00;98947.69;4981209;28;103316;-62
2021/01/21 00:48:24;;;;;;;6.60;3.87;;;7.00;90.80;;;5.72;100.00;98944.34;4966949;28;100058;-63
2021/01/21 00:50:50;;;;;;;7.20;3.80;;;6.90;90.90;;;5.72;100.00;98941.69;4964749;28;100029;-63
2021/01/21 00:53:17;;;;;;;4.87;3.20;;;6.80;90.90;;;5.70;100.00;98943.69;4964735;28;100976;-61
2021/01/21 00:55:43;;;;;;;6.00;3.97;;;6.80;91.00;;;5.71;100.00;98951.47;4979415;28;100550;-62
2021/01/21 00:58:11;;;;;;;7.03;3.77;;;6.80;91.00;;;5.68;100.00;98945.69;4965504;28;100177;-63
2021/01/21 01:00:38;;;;;;;6.40;3.80;;;6.80;91.40;;;5.63;100.00;98943.50;4965326;28;100232;-62
2021/01/21 01:03:06;;;;;;;5.37;4.10;;;6.80;91.40;;;5.62;100.00;98938.34;4980314;28;103138;-62
2021/01/21 01:05:35;;;;;;;6.87;3.90;;;6.60;91.40;;;5.62;100.00;98944.47;4979523;28;101963;-62
2021/01/21 01:08:03;;;;;;;5.73;4.47;;;6.60;91.60;;;5.51;100.00;98938.63;4980018;27;100208;-61
2021/01/21 01:10:30;;;;;;;5.47;4.33;;;6.60;91.90;;;5.41;100.00;98944.91;4979880;28;100533;-62
2021/01/21 01:13:01;;;;;;;5.63;4.17;;;6.60;92.00;;;5.48;100.00;98936.28;4979422;28;102969;-61
2021/01/21 01:15:32;;;;;;;6.93;4.93;;;6.60;92.10;;;5.48;100.00;98939.78;4964747;28;100153;-60
2021/01/21 01:18:00;;;;;;;7.13;4.63;;;6.50;92.20;;;5.37;100.00;98945.34;4979291;28;100354;-62
2021/01/21 01:20:27;;;;;;;7.47;5.30;;;6.70;92.50;;;5.47;100.00;98937.28;4964889;28;100192;-61
2021/01/21 01:22:55;;;;;;;7.10;5.03;;;6.50;92.20;;;5.37;100.00;98934.75;4979598;28;101196;-61
2021/01/21 01:25:22;;;;;;;8.67;5.47;;;6.50;92.60;;;5.30;100.00;98931.06;4964553;28;100210;-60
2021/01/21 01:27:55;;;;;;;6.97;5.40;;;6.50;92.70;;;5.36;100.00;98931.25;4964687;28;100060;-60
2021/01/21 01:30:31;;;;;;;7.93;5.00;;;6.60;92.90;;;5.34;100.00;98921.78;4964609;28;100238;-62
2021/01/21 01:32:57;;;;;;;7.57;5.73;;;6.50;92.90;;;5.23;100.00;98922.91;4964811;28;100791;-59
2021/01/21 01:35:24;;;;;;;9.03;5.60;;;6.70;93.20;;;5.32;100.00;98908.69;4964478;28;100979;-61
2021/01/21 01:37:53;;;;;;;7.40;5.50;;;6.60;93.20;;;5.33;100.00;98914.81;4965350;28;100089;-62
2021/01/21 01:40:21;;;;;;;9.10;5.87;;;6.60;93.20;;;5.38;100.00;98913.38;4978711;28;100431;-61
2021/01/21 01:42:51;;;;;;;7.83;6.40;;;6.50;93.00;;;5.38;100.00;98910.72;4978532;28;103100;-61
2021/01/21 01:45:21;;;;;;;7.87;5.17;;;6.50;93.20;;;5.36;100.00;98903.91;4978758;28;100604;-62
2021/01/21 01:47:50;;;;;;;8.40;5.83;;;6.70;93.20;;;5.40;100.00;98906.09;4979810;28;100356;-62
2021/01/21 01:50:40;;;;;;;9.63;5.90;;;6.70;93.50;;;5.43;100.00;98904.13;4966418;28;100325;-62
2021/01/21 01:53:08;;;;;;;10.93;5.87;;;6.70;93.20;;;5.40;100.00;98905.25;4978654;28;103311;-63
2021/01/21 01:55:36;;;;;;;10.00;6.00;;;6.70;93.50;;;5.36;100.00;98910.03;4978408;28;102958;-62
2021/01/21 01:58:22;;;;;;;8.97;5.87;;;6.60;93.40;;;5.51;100.00;98902.31;4961598;28;100340;-62
2021/01/21 03:09:44;;;;;;;10.63;8.07;;;6.10;96.10;;;5.09;100.00;98840.44;4941807;28;100232;-62
2021/01/21 03:12:23;;;;;;;8.43;5.77;;;6.20;96.70;;;5.05;100.00;98832.84;4986383;27;101000;-62
2021/01/21 03:14:54;;;;;;;8.77;7.10;;;6.10;96.60;;;5.07;100.00;98830.84;5001597;27;100100;-62
2021/01/21 03:17:23;;;;;;;10.43;7.10;;;6.20;96.50;;;5.07;100.00;98838.78;4984933;28;100182;-62
2021/01/21 03:20:01;;;;;;;8.13;6.73;;;6.20;96.40;;;5.04;100.00;98840.94;4981443;28;101277;-62
2021/01/21 03:22:27;;;;;;;8.87;6.53;;;6.10;96.40;;;5.13;100.00;98837.34;4966897;28;100651;-63
2021/01/21 03:24:55;;;;;;;8.13;6.40;;;6.30;96.00;;;5.17;100.00;98851.13;4980561;28;100083;-63
2021/01/21 03:27:31;;;;;;;10.13;6.77;;;6.30;95.80;;;5.11;100.00;98841.13;4981055;28;100294;-63
2021/01/21 03:30:07;;;;;;;8.90;6.90;;;6.30;95.70;;;5.32;100.00;98830.94;4981347;28;103021;-63
2021/01/21 03:32:34;;;;;;;9.57;6.77;;;6.40;95.10;;;5.37;100.00;98832.13;4981566;28;102491;-63
2021/01/21 03:35:03;;;;;;;8.80;6.47;;;6.60;94.80;;;5.43;100.00;98822.72;4981751;28;100712;-62
2021/01/21 03:37:29;;;;;;;7.87;6.13;;;6.50;94.50;;;5.53;100.00;98835.84;4981984;28;100477;-60
2021/01/21 03:39:57;;;;;;;7.73;6.20;;;6.60;93.80;;;5.52;100.00;98832.34;4966411;28;101622;-62
2021/01/21 03:42:33;;;;;;;6.70;5.93;;;6.60;93.80;;;5.47;100.00;98834.66;4980734;28;102620;-63
2021/01/21 03:45:23;;;;;;;7.70;5.87;;;6.60;93.50;;;5.48;100.00;98836.31;4965057;28;100494;-60
2021/01/21 03:47:51;;;;;;;8.20;6.43;;;6.70;93.40;;;5.52;100.00;98824.41;4980526;28;100247;-63
2021/01/21 03:50:20;;;;;;;7.83;6.27;;;6.60;93.00;;;5.52;100.00;98829.69;4979778;28;101579;-59
2021/01/21 03:52:48;;;;;;;8.70;6.50;;;6.70;93.00;;;5.45;100.00;98833.97;4980309;28;102721;-62
2021/01/21 03:55:24;;;;;;;7.07;5.77;;;6.80;93.10;;;5.42;100.00;98829.00;4980544;27;100373;-62
2021/01/21 03:58:00;;;;;;;8.93;6.93;;;6.70;93.20;;;5.49;100.00;98819.41;4981052;28;100144;-62
2021/01/21 04:00:41;;;;;;;8.37;6.47;;;6.70;92.90;;;5.49;100.00;98823.88;4979893;27;100785;-62
2021/01/21 04:03:08;;;;;;;9.77;7.37;;;6.70;92.90;;;5.48;100.00;98830.16;4965847;28;101011;-62
2021/01/21 04:05:54;;;;;;;8.27;6.60;;;6.70;92.70;;;5.55;100.00;98818.78;4965755;28;100303;-61
2021/01/21 04:08:24;;;;;;;9.03;7.30;;;7.00;92.50;;;5.46;100.00;98821.53;4981293;28;100483;-62
2021/01/21 04:10:57;;;;;;;8.27;6.57;;;6.80;92.60;;;5.50;100.00;98817.56;4980286;27;100302;-62
2021/01/21 04:13:29;;;;;;;10.13;7.53;;;6.90;92.50;;;5.47;100.00;98821.38;4980194;28;102979;-62
2021/01/21 04:16:05;;;;;;;9.53;7.17;;;6.80;92.50;;;5.37;100.00;98818.88;4980278;28;100200;-62
2021/01/21 04:18:32;;;;;;;9.70;7.03;;;6.80;92.90;;;5.34;100.00;98818.34;4965862;28;100135;-64
2021/01/21 04:21:03;;;;;;;11.00;7.17;;;6.70;92.90;;;5.28;100.00;98814.53;4979839;28;102735;-62
2021/01/21 04:23:33;;;;;;;12.23;7.20;;;6.70;93.10;;;5.24;100.00;98804.41;4979988;28;102893;-63
2021/01/21 04:26:01;;;;;;;9.70;7.17;;;6.80;93.30;;;5.24;100.00;98815.00;4979519;27;100188;-59
2021/01/21 04:28:30;;;;;;;10.90;7.57;;;6.70;93.60;;;5.28;100.00;98813.72;4980139;28;100370;-62
2021/01/21 04:30:56;;;;;;;9.90;7.80;;;6.60;93.40;;;5.24;100.00;98810.53;4979800;28;103161;-61
2021/01/21 04:33:23;;;;;;;8.73;6.80;;;6.60;93.60;;;5.24;100.00;98807.06;4965354;28;101265;-63
2021/01/21 04:35:50;;;;;;;9.37;7.10;;;6.60;93.50;;;5.29;100.00;98807.41;4963342;27;100180;-63
2021/01/21 04:38:16;;;;;;;10.40;7.73;;;6.60;93.70;;;5.33;100.00;98795.47;4966032;28;100304;-64
2021/01/21 04:40:54;;;;;;;9.83;7.73;;;6.50;93.50;;;5.22;100.00;98795.78;4979410;28;102452;-63
2021/01/21 04:43:48;;;;;;;8.43;7.33;;;6.60;93.70;;;5.19;100.00;98788.16;4963456;28;100532;-63
2021/01/21 04:46:34;;;;;;;10.30;7.70;;;6.40;93.70;;;5.10;100.00;98787.28;4964895;28;100162;-61
2021/01/21 04:49:02;;;;;;;9.67;7.90;;;6.40;94.00;;;5.21;100.00;98786.16;4965161;28;100106;-62
2021/01/21 04:51:31;;;;;;;13.50;8.07;;;6.50;93.90;;;5.13;100.00;98788.78;4979375;28;102665;-62
2021/01/21 04:54:07;;;;;;;9.93;7.73;;;6.50;94.10;;;5.07;100.00;98793.72;4979575;28;102679;-62
2021/01/21 04:57:02;;;;;;;10.87;8.47;;;6.40;94.30;;;4.63;100.00;98790.38;4963144;28;100488;-62
2021/01/21 04:59:41;;;;;;;12.10;9.80;;;6.40;94.30;;;4.55;100.00;98789.50;4979888;28;100172;-61
2021/01/21 05:02:14;;;;;;;10.87;9.43;;;6.30;94.40;;;4.45;100.00;98786.13;4979755;28;101256;-62
2021/01/21 05:04:50;;;;;;;14.70;11.03;;;6.30;94.70;;;4.35;100.00;98786.22;4979705;28;102438;-63
2021/01/21 05:07:26;;;;;;;11.00;9.70;;;6.30;95.00;;;4.32;100.00;98790.03;4979536;28;100380;-62
2021/01/21 05:09:53;;;;;;;14.23;9.93;;;6.20;95.30;;;4.25;100.00;98790.78;4978921;27;100795;-60
2021/01/21 05:12:21;;;;;;;11.60;9.43;;;6.10;95.40;;;4.19;100.00;98794.06;4979245;28;100167;-62
2021/01/21 05:15:07;;;;;;;12.40;10.27;;;6.10;95.90;;;4.12;100.00;98799.13;4962682;28;102962;-61
2021/01/21 05:17:59;;;;;;;12.27;10.80;;;6.30;96.10;;;4.11;100.00;98800.09;4969513;28;100343;-62
2021/01/21 05:20:47;;;;;;;14.80;11.97;;;5.90;96.70;;;4.02;100.00;98803.66;4963834;28;99890;-61
2021/01/21 05:23:39;;;;;;;12.93;10.97;;;5.80;96.90;;;3.94;100.00;98795.66;4955120;28;100681;-60
2021/01/21 05:26:20;;;;;;;14.07;10.57;;;5.90;97.40;;;3.86;100.00;98803.50;4979591;28;101602;-62
2021/01/21 05:29:11;;;;;;;15.30;11.00;;;5.70;97.60;;;3.87;100.00;98792.78;4965457;28;100072;-61
2021/01/21 05:31:48;;;;;;;13.17;9.73;;;5.60;98.00;;;3.83;100.00;98793.25;4963374;28;100347;-60
2021/01/21 05:34:17;;;;;;;13.13;10.20;;;5.70;98.20;;;3.80;100.00;98788.25;4978346;28;103101;-62
2021/01/21 05:37:15;;;;;;;14.80;11.03;;;5.70;98.50;;;3.74;100.00;98794.16;4963136;28;100514;-61
2021/01/21 05:40:10;;;;;;;14.67;12.07;;;5.50;98.90;;;3.68;100.00;98781.53;4979427;27;100217;-61
2021/01/21 05:43:03;;;;;;;16.87;12.40;;;5.50;99.00;;;3.62;100.00;98777.66;4964739;28;100444;-62
2021/01/21 05:45:48;;;;;;;15.20;10.83;;;5.40;99.40;;;3.71;100.00;98781.25;4978425;27;100223;-61
2021/01/21 05:48:16;;;;;;;15.13;11.13;;;5.30;99.70;;;3.78;100.00;98780.47;4978567;28;102707;-61
2021/01/21 05:50:47;;;;;;;13.37;10.87;;;5.30;99.60;;;3.76;100.00;98781.59;4979187;28;100342;-61
2021/01/21 05:53:17;;;;;;;13.50;10.60;;;5.30;99.60;;;3.76;100.00;98784.25;4963094;28;100640;-61
2021/01/21 05:55:51;;;;;;;14.37;10.97;;;6.10;99.80;;;3.84;100.00;98779.84;4978813;28;102662;-61
2021/01/21 05:58:19;;;;;;;14.40;11.10;;;5.40;99.60;;;3.96;100.00;98772.50;4979156;28;102279;-61
2021/01/21 06:00:48;;;;;;;11.83;9.47;;;5.60;99.30;;;4.08;100.00;98773.13;4978500;28;100383;-61
2021/01/21 06:03:36;;;;;;;11.40;8.70;;;5.50;98.90;;;4.16;100.00;98776.66;4979177;28;100001;-61
2021/01/21 06:06:11;;;;;;;13.53;9.40;;;5.70;98.40;;;4.21;100.00;98774.34;4963836;28;101308;-61
2021/01/21 06:08:39;;;;;;;12.70;10.37;;;5.70;98.10;;;4.16;100.00;98773.19;4963899;28;100732;-61
2021/01/21 06:11:06;;;;;;;12.23;9.17;;;5.70;97.90;;;4.24;100.00;98771.41;4963953;28;100204;-61
2021/01/21 06:13:35;;;;;;;13.97;10.07;;;5.80;97.50;;;4.24;100.00;98765.28;4965144;28;100058;-61
2021/01/21 06:16:04;;;;;;;13.13;10.03;;;5.90;97.20;;;4.26;100.00;98761.50;4964380;28;101620;-62
2021/01/21 06:18:31;;;;;;;10.83;9.03;;;6.10;97.10;;;4.36;100.00;98777.28;4963707;28;99909;-61
2021/01/21 06:21:10;;;;;;;14.30;8.87;;;5.90;96.60;;;4.45;100.00;98768.38;4961873;28;100138;-61
2021/01/21 06:24:01;;;;;;;11.63;8.77;;;6.00;96.40;;;4.46;100.00;98755.97;4961806;28;100488;-61
2021/01/21 06:26:42;;;;;;;11.63;8.80;;;6.00;96.00;;;4.50;100.00;98770.59;4977848;28;102512;-61
2021/01/21 06:29:13;;;;;;;9.87;8.00;;;6.10;95.90;;;4.54;100.00;98766.66;4963470;28;101284;-61
2021/01/21 06:31:41;;;;;;;11.53;8.57;;;6.10;95.60;;;4.43;100.00;98769.56;4964116;27;100111;-64
2021/01/21 06:34:16;;;;;;;11.33;8.17;;;6.00;95.70;;;4.61;100.00;98754.41;4964664;28;100009;-61
2021/01/21 06:36:51;;;;;;;9.67;7.10;;;6.20;95.20;;;4.58;100.00;98762.66;4963134;28;101923;-62
2021/01/21 06:39:26;;;;;;;11.37;8.60;;;6.20;95.30;;;4.50;100.00;98765.28;4963379;28;100673;-63
2021/01/21 06:41:57;;;;;;;8.70;7.73;;;6.10;95.20;;;4.49;100.00;98761.81;4964307;28;101591;-60
2021/01/21 06:44:24;;;;;;;11.00;8.60;;;6.20;95.40;;;4.49;100.00;98772.41;4964760;28;100193;-63
2021/01/21 06:46:54;;;;;;;11.77;8.60;;;6.20;95.30;;;4.58;100.00;98768.81;4963360;28;101099;-62
2021/01/21 06:49:21;;;;;;;10.80;8.17;;;6.60;95.40;;;4.62;100.00;98764.03;4963764;28;100768;-62
2021/01/21 06:51:49;;;;;;;11.30;9.73;;;6.30;95.20;;;4.62;100.00;98762.22;4967019;28;100165;-62
2021/01/21 06:54:17;;;;;;;10.93;8.70;;;6.20;95.20;;;4.63;100.00;98763.03;4968124;28;100161;-62
2021/01/21 06:56:44;;;;;;;12.20;8.43;;;7.20;95.40;;;4.56;100.00;98754.06;4967031;28;100957;-63
2021/01/21 06:59:11;;;;;;;11.90;9.37;;;6.20;95.20;;;4.55;100.00;98750.59;4966724;28;101391;-62
2021/01/21 07:01:45;;;;;;;12.57;8.80;;;6.20;95.00;;;4.51;100.00;98757.19;4981762;28;100263;-62
2021/01/21 07:04:27;;;;;;;12.33;9.77;;;6.20;95.30;;;4.57;100.00;98761.03;4967170;28;100016;-63
2021/01/21 07:07:12;;;;;;;12.00;9.30;;;6.20;95.10;;;4.44;100.00;98758.81;4981283;27;102749;-63
2021/01/21 07:09:41;;;;;;;11.20;8.47;;;7.10;95.40;;;4.36;100.00;98757.91;4967020;28;101208;-62
2021/01/21 07:12:15;;;;;;;12.77;9.33;;;6.20;95.50;;;4.42;100.00;98744.06;4967250;28;100116;-62
2021/01/21 07:14:42;;;;;;;11.17;9.03;;;6.10;95.60;;;4.43;100.00;98745.72;4967612;28;100023;-62
2021/01/21 07:17:09;;;;;;;13.80;9.07;;;6.10;95.60;;;4.38;100.00;98748.81;4966500;28;100769;-62
2021/01/21 07:19:38;;;;;;;13.93;9.83;;;6.00;95.80;;;4.39;100.00;98752.31;4967223;28;102054;-61
2021/01/21 07:22:20;;;;;;;14.07;10.17;;;6.00;95.90;;;4.36;100.00;98734.91;4967561;28;100181;-62
2021/01/21 07:25:05;;;;;;;11.97;9.37;;;6.10;96.00;;;4.31;100.00;98739.88;4967352;28;100201;-62
2021/01/21 07:27:34;;;;;;;13.67;10.53;;;6.10;96.20;;;4.33;100.00;98751.09;4966561;28;100733;-61
2021/01/21 07:30:22;;;;;;;13.27;9.83;;;6.00;96.20;;;4.30;100.00;98749.63;4982041;28;103041;-60
2021/01/21 07:32:49;;;;;;;10.77;9.67;;;6.00;96.30;;;4.29;100.00;98755.06;4966803;28;100261;-63
2021/01/21 07:35:36;;;;;;;11.60;9.27;;;6.00;96.40;;;4.32;100.00;98749.47;4966264;28;100253;-61
2021/01/21 07:38:03;;;;;;;12.07;9.97;;;6.00;96.50;;;4.31;100.00;98753.09;4966357;28;100803;-62
2021/01/21 07:40:46;;;;;;;13.87;10.40;;;6.00;96.60;;;4.34;100.00;98750.94;4966185;28;101842;-62
2021/01/21 07:43:14;;;;;;;12.30;9.23;;;5.90;96.60;;;4.32;100.00;98758.25;4965255;28;99927;-62
2021/01/21 07:45:44;;;;;;;13.30;9.90;;;5.90;96.70;;;4.40;100.00;98746.84;4980399;28;100422;-62
2021/01/21 07:48:24;;;;;;;12.73;10.43;;;5.90;96.40;;;4.41;100.00;98753.00;4965386;28;102076;-61
2021/01/21 07:50:52;;;;;;;14.83;10.60;;;6.10;96.70;;;4.44;100.00;98737.63;4965380;28;101271;-61
2021/01/21 07:53:22;;;;;;;11.70;9.13;;;6.20;96.50;;;4.43;100.00;98759.78;4966652;27;100395;-61
2021/01/21 07:55:50;;;;;;;12.07;9.77;;;6.20;96.50;;;4.54;100.00;98737.50;4966695;28;100234;-62
2021/01/21 07:58:22;;;;;;;12.20;10.10;;;6.30;96.20;;;4.60;100.00;98745.63;4966288;28;100752;-61
2021/01/21 08:00:50;;;;;;;12.63;10.17;;;6.30;95.90;;;4.63;100.00;98737.38;4959597;28;100794;-62
2021/01/21 08:03:31;;;;;;;12.63;9.37;;;6.30;95.80;;;4.61;100.00;98742.00;4965942;28;100009;-62
2021/01/21 08:06:15;;;;;;;12.60;9.33;;;5.50;95.60;;;4.65;100.00;98723.97;4963926;28;100312;-63
2021/01/21 08:08:45;;;;;;;11.33;9.37;;;6.40;95.50;;;4.78;100.00;98734.13;4965451;28;100800;-61
2021/01/21 08:11:14;;;;;;;11.43;9.33;;;6.50;95.20;;;4.78;100.00;98721.72;4965356;28;100712;-62
2021/01/21 08:13:41;;;;;;;12.87;9.40;;;6.60;94.90;;;4.78;100.00;98734.13;4981125;28;100014;-61
2021/01/21 08:16:14;;;;;;;13.43;10.83;;;6.60;94.70;;;4.75;100.00;98743.22;4966303;28;100021;-61
2021/01/21 08:18:41;;;;;;;11.83;8.60;;;6.60;94.40;;;4.66;100.00;98728.28;4965429;28;101243;-62
2021/01/21 08:21:21;;;;;;;13.93;10.37;;;6.50;94.40;;;4.72;100.00;98722.34;4965702;28;101386;-60
2021/01/21 08:23:56;;;;;;;13.43;10.20;;;6.60;94.40;;;4.76;100.00;98701.66;4966335;28;100092;-60
2021/01/21 08:26:24;;;;;;;13.60;10.10;;;6.70;93.30;;;4.69;100.00;98704.13;4965917;28;100604;-62
2021/01/21 08:28:50;;;;;;;13.57;10.30;;;6.80;93.80;;;4.55;100.00;98710.88;4949926;28;101168;-62
2021/01/21 08:31:18;;;;;;;12.50;9.93;;;6.80;93.70;;;4.55;100.00;98699.44;4979519;28;102565;-61
2021/01/21 08:33:51;;;;;;;12.57;10.17;;;6.70;93.80;;;4.53;100.00;98710.19;4965059;28;99921;-62
2021/01/21 08:36:23;;;;;;;14.83;10.30;;;6.60;94.10;;;4.48;100.00;98724.88;4964823;28;100109;-61
2021/01/21 08:38:50;;;;;;;12.77;10.27;;;6.70;94.40;;;4.49;100.00;98727.38;4965610;28;100838;-61
2021/01/21 08:41:19;;;;;;;13.73;10.67;;;6.50;94.50;;;4.47;100.00;98728.50;4965003;28;101194;-60
2021/01/21 08:43:46;;;;;;;13.23;11.23;;;6.50;95.00;;;4.54;100.00;98734.84;4965887;28;100236;-61
2021/01/21 08:46:15;;;;;;;15.77;11.13;;;6.60;95.10;;;4.64;100.00;98725.81;4965021;28;99987;-61
2021/01/21 08:48:42;;;;;;;11.57;9.43;;;6.60;95.40;;;4.79;100.00;98698.72;4965174;28;100857;-61
2021/01/21 08:51:36;;;;;;;12.23;9.70;;;6.60;95.20;;;4.98;100.00;98715.16;4965432;28;100525;-62
2021/01/21 08:54:11;;;;;;;12.43;9.67;;;7.00;93.70;;;5.13;100.00;98709.25;4965871;28;100292;-61
2021/01/21 08:56:38;;;;;;;12.47;9.97;;;7.30;93.50;;;5.21;100.00;98694.16;4965226;28;100109;-62
2021/01/21 08:59:25;;;;;;;10.67;8.77;;;8.70;92.80;;;5.17;100.00;98690.22;4964949;28;101017;-62
2021/01/21 09:01:52;;;;;;;12.47;9.77;;;7.60;91.70;;;5.28;100.00;98692.53;4964945;28;100580;-61
2021/01/21 09:04:26;;;;;;;13.63;9.77;;;7.90;90.90;;;5.37;100.00;98690.72;4964785;28;100135;-62
2021/01/21 09:06:55;;;;;;;10.90;8.87;;;8.20;90.20;;;5.41;100.00;98692.91;4965482;28;100334;-62
2021/01/21 09:09:27;;;;;;;14.40;10.40;;;8.30;88.40;;;5.51;100.00;98694.56;4964402;28;101146;-61
2021/01/21 09:11:54;;;;;;;11.17;9.40;;;8.50;87.00;;;5.51;100.00;98689.25;4964657;28;100184;-61
2021/01/21 09:14:23;;;;;;;11.10;9.30;;;8.50;85.90;;;5.46;100.00;98695.03;4965364;28;100023;-61
2021/01/21 09:16:51;;;;;;;11.07;8.80;;;8.60;84.00;;;5.45;100.00;98684.59;4966081;28;100045;-61
2021/01/21 09:19:39;;;;;;;10.43;8.40;;;8.50;84.00;;;5.39;100.00;98688.75;4965273;28;101045;-62
2021/01/21 09:22:08;;;;;;;11.23;8.70;;;8.50;83.00;;;5.25;100.00;98695.50;4965016;28;101361;-61
2021/01/21 09:24:55;;;;;;;10.77;8.83;;;8.30;84.20;;;5.20;100.00;98699.63;4964773;28;100292;-62
2021/01/21 09:27:23;;;;;;;13.60;9.80;;;8.20;85.90;;;5.11;100.00;98711.22;4964186;28;100292;-62
2021/01/21 09:29:51;;;;;;;12.67;10.50;;;8.10;86.90;;;5.00;100.00;98712.34;4963687;28;100820;-61
2021/01/21 09:32:19;;;;;;;10.77;9.00;;;7.80;87.90;;;4.97;100.00;98700.25;4963359;28;100481;-62
2021/01/21 09:35:01;;;;;;;13.93;9.57;;;7.70;89.10;;;4.99;100.00;98726.59;4962281;28;100430;-61
2021/01/21 09:37:32;;;;;;;13.93;9.40;;;7.50;90.30;;;4.89;100.00;98726.72;4961810;28;100083;-61
2021/01/21 09:39:59;;;;;;;13.27;9.87;;;7.40;90.90;;;4.89;100.00;98715.31;4963579;28;102171;-61
2021/01/21 09:42:32;;;;;;;11.73;10.03;;;7.50;91.50;;;4.96;100.00;98729.56;4964868;28;100436;-61
2021/01/21 09:45:00;;;;;;;11.70;10.13;;;7.30;91.60;;;4.93;100.00;98719.31;4964528;28;100163;-61
2021/01/21 09:47:27;;;;;;;14.47;10.80;;;7.30;91.90;;;4.89;100.00;98729.38;4964676;27;100158;-61
2021/01/21 09:49:53;;;;;;;11.63;10.43;;;7.20;92.10;;;4.84;100.00;98736.13;4963401;28;101323;-61
2021/01/21 09:52:20;;;;;;;13.20;10.27;;;7.20;92.50;;;5.01;100.00;98729.91;4964694;28;101442;-61
2021/01/21 09:54:46;;;;;;;13.10;10.43;;;7.20;92.60;;;5.00;100.00;98734.38;4964958;28;100199;-62
2021/01/21 09:57:13;;;;;;;14.03;11.20;;;7.10;92.80;;;4.98;100.00;98736.38;4965544;28;100099;-61
2021/01/21 09:59:40;;;;;;;12.07;9.30;;;7.00;92.90;;;4.99;100.00;98732.72;4964751;28;100917;-62
2021/01/21 10:02:07;;;;;;;12.20;10.20;;;7.00;93.00;;;4.98;100.00;98716.97;4964694;28;101185;-62
2021/01/21 10:04:36;;;;;;;13.50;9.07;;;7.20;93.10;;;5.05;100.00;98731.28;4965190;28;100275;-61
2021/01/21 10:07:03;;;;;;;14.23;10.20;;;7.20;93.30;;;5.07;100.00;98729.25;4964694;28;100183;-62
2021/01/21 10:09:30;;;;;;;14.13;10.20;;;7.20;93.30;;;5.13;100.00;98728.63;4963828;28;101083;-61
2021/01/21 10:11:56;;;;;;;10.50;9.33;;;7.20;92.90;;;5.19;100.00;98741.25;4964740;28;100537;-61
2021/01/21 10:14:23;;;;;;;10.37;8.27;;;7.20;92.60;;;5.41;100.00;98743.28;4965229;28;99993;-61
2021/01/21 10:16:50;;;;;;;13.57;9.40;;;7.20;92.50;;;5.40;100.00;98740.81;4965287;28;99996;-62
2021/01/21 10:19:16;;;;;;;13.50;9.43;;;7.30;92.50;;;5.36;100.00;98734.16;4978448;28;102125;-62
2021/01/21 10:21:43;;;;;;;12.00;9.27;;;7.50;92.30;;;5.40;100.00;98733.69;4964069;28;101078;-60
2021/01/21 10:24:10;;;;;;;10.33;7.77;;;7.30;92.00;;;5.44;100.00;98725.41;4964850;28;100180;-61
2021/01/21 10:26:36;;;;;;;11.40;9.43;;;7.20;92.00;;;5.51;100.00;98737.00;4967870;28;100035;-61
2021/01/21 10:29:03;;;;;;;12.73;8.93;;;7.50;91.90;;;5.51;100.00;98729.88;4967910;28;101855;-62
2021/01/21 10:31:30;;;;;;;11.43;8.97;;;7.50;91.60;;;5.47;100.00;98744.44;4968340;28;100598;-62
2021/01/21 10:33:58;;;;;;;11.60;9.20;;;7.50;91.50;;;5.42;100.00;98752.09;4953076;28;100192;-61
2021/01/21 10:36:24;;;;;;;11.80;9.70;;;7.60;91.30;;;5.47;100.00;98755.06;4966378;28;100266;-60
2021/01/21 10:38:51;;;;;;;11.87;9.30;;;7.50;91.30;;;5.57;100.00;98750.44;4966969;28;100117;-59
2021/01/21 10:41:17;;;;;;;11.57;9.13;;;7.50;91.00;;;5.85;100.00;98755.44;4966701;28;101532;-60
2021/01/21 10:43:50;;;;;;;10.50;8.80;;;7.80;91.20;;;6.03;100.00;98756.97;4967047;28;100168;-61
2021/01/21 10:46:16;;;;;;;10.53;8.63;;;8.00;90.80;;;5.97;100.00;98748.84;4967477;28;100180;-60
2021/01/21 10:48:43;;;;;;;14.93;8.87;;;8.20;89.50;;;5.98;100.00;98731.91;4967044;28;100887;-62
2021/01/21 10:51:10;;;;;;;11.53;8.20;;;8.40;88.80;;;6.05;100.00;98749.69;4966804;28;101473;-61
2021/01/21 10:53:36;;;;;;;9.37;7.73;;;8.40;87.00;;;6.18;100.00;98741.22;4967492;28;100180;-61
2021/01/21 10:56:03;;;;;;;9.67;8.13;;;8.60;85.90;;;6.52;100.00;98734.84;4967410;28;100059;-63
2021/01/21 10:58:37;;;;;;;8.70;7.40;;;8.80;83.80;;;6.54;100.00;98719.56;4967018;28;100661;-62
2021/01/21 11:01:04;;;;;;;9.90;8.27;;;9.00;82.20;;;6.60;100.00;98719.69;4966392;28;100655;-63
2021/01/21 11:03:30;;;;;;;9.67;7.40;;;9.40;79.90;;;6.77;100.00;98731.09;4967112;28;100404;-62
2021/01/21 11:05:57;;;;;;;11.13;7.70;;;9.40;79.10;;;6.87;100.00;98714.94;4967014;28;99940;-63
2021/01/21 11:08:24;;;;;;;11.03;8.60;;;9.50;77.70;;;7.11;100.00;98725.47;4966541;28;101083;-62
2021/01/21 11:10:50;;;;;;;9.30;7.60;;;9.60;78.50;;;7.03;100.00;98720.19;4965543;28;100652;-62
2021/01/21 11:13:17;;;;;;;11.83;8.07;;;9.80;77.00;;;6.96;100.00;98711.22;4967884;28;99952;-61
2021/01/21 11:15:45;;;;;;;8.90;8.00;;;9.70;75.30;;;6.99;100.00;98719.69;4968826;28;100500;-62
2021/01/21 11:18:11;;;;;;;12.37;8.90;;;9.90;75.30;;;6.99;100.00;98722.38;4967622;28;101177;-62
2021/01/21 11:20:38;;;;;;;9.37;7.83;;;9.80;74.90;;;7.07;100.00;98708.19;4967191;28;100750;-61
2021/01/21 11:23:05;;;;;;;7.43;6.60;;;9.70;73.60;;;7.16;100.00;98704.50;4966623;28;100033;-60
2021/01/21 11:25:33;;;;;;;10.03;6.97;;;9.70;73.40;;;7.25;100.00;98707.94;4965963;27;100015;-61
2021/01/21 11:27:59;;;;;;;8.80;7.10;;;9.90;73.50;;;7.24;100.00;98717.75;4946488;28;100909;-61
2021/01/21 11:30:26;;;;;;;9.07;7.70;;;9.70;72.60;;;7.12;100.00;98705.84;4958128;28;100519;-60
2021/01/21 11:32:53;;;;;;;10.33;8.20;;;9.90;72.60;;;7.10;100.00;98710.50;4966549;28;99892;-62
2021/01/21 11:35:20;;;;;;;9.50;7.43;;;10.00;72.60;;;7.34;100.00;98709.53;4966466;28;100205;-61
2021/01/21 11:37:46;;;;;;;8.33;7.53;;;9.90;72.70;;;7.37;100.00;98706.53;4966468;28;101355;-61
2021/01/21 11:40:13;;;;;;;9.67;7.97;;;10.30;72.50;;;7.30;100.00;98695.75;4965897;28;101277;-61
2021/01/21 11:42:41;;;;;;;8.67;7.43;;;10.10;71.30;;;7.41;100.00;98692.72;4967185;27;100136;-61